This is the latest recevied weather packets stored in our database for station/object SQ4LOL-13. If no packets are shown the sender has not sent any weather packets the latest 10 day(s).
| Time | Temp. | Humidity | Pressure | Rain* | Wind** | Luminosity | Snow |
|---|---|---|---|---|---|---|---|
| 1777937429 | 12.22° C | 65% | 993.8 hPa | 0 mm | - | - | - |
| 1777934418 | 13.33° C | 62% | 993.7 hPa | 0 mm | - | - | - |
| 1777927496 | 16.11° C | 56% | 993.6 hPa | 0 mm | - | - | - |
| 1777926291 | 16.67° C | 55% | 993.5 hPa | 0 mm | - | - | - |
| 1777923904 | 17.78° C | 50% | 993.6 hPa | 0 mm | - | - | - |
| 1777922680 | 18.89° C | 48% | 993.5 hPa | 0 mm | - | - | - |
| 1777914854 | 25° C | 34% | 993.2 hPa | 0 mm | - | - | - |
| 1777914252 | 25° C | 34% | 993.2 hPa | 0 mm | - | - | - |
| 1777913047 | 25.56° C | 33% | 993.3 hPa | 0 mm | - | - | - |
| 1777900405 | 30.56° C | 24% | 994.3 hPa | 0 mm | - | - | - |
| 1777894385 | 27.78° C | 26% | 994.8 hPa | 0 mm | - | - | - |
| 1777890794 | 26.11° C | 27% | 995.4 hPa | 0 mm | - | - | - |
| 1777881744 | 21.67° C | 40% | 996.6 hPa | 0 mm | - | - | - |
| 1777881141 | 21.67° C | 40% | 996.5 hPa | 0 mm | - | - | - |
| 1777875723 | 17.22° C | 51% | 996.7 hPa | 0 mm | - | - | - |
| 1777870908 | 12.78° C | 61% | 996.8 hPa | 0 mm | - | - | - |
| 1777870305 | 12.22° C | 62% | 996.8 hPa | 0 mm | - | - | - |
| 1777869704 | 11.67° C | 62% | 996.6 hPa | 0 mm | - | - | - |
| 1777868499 | 11.11° C | 62% | 996.5 hPa | 0 mm | - | - | - |
| 1777864908 | 11.11° C | 59% | 996.6 hPa | 0 mm | - | - | - |
| 1777863081 | 12.22° C | 57% | 996.5 hPa | 0 mm | - | - | - |
| 1777857061 | 13.33° C | 52% | 996.7 hPa | 0 mm | - | - | - |
| 1777856459 | 13.89° C | 52% | 996.7 hPa | 0 mm | - | - | - |
| 1777854071 | 13.89° C | 51% | 996.7 hPa | 0 mm | - | - | - |
| 1777851643 | 14.44° C | 51% | 996.8 hPa | 0 mm | - | - | - |
* Rain latest hour (hover to see other rain measurements)
** Current wind speed in m/s (hover to see current wind gust speed)